Maran Sagitta — SVAQ6 — position and weather

sailwx.info

Track history (hours):
 
Tides and Currents Weather Stations Pressure Air Temp Water Temp Dewpoint Dewpoint Depression Visibility Wind Speed Wind Dir Waves Ship Positions

Maran Sagitta

Last reported at 2018-Jun-22 05:57 UTC. Time now 2018-Jun-22 23:01 UTC.
Position N 28°53' W 093°13'.

Length 244 m; draft 9 m.

Type: Tanker. MMSI: 240892000.

Date/timePositionNaut miles runAvg speedWind from/ knotsBaromVisibWave heightAir tempDewpointWater temp
2018-Jun-22 05:57N 28°53' W 093°13'4212.2
2018-Jun-22 02:30N 29°35' W 093°17'612.4
2018-Jun-22 02:00N 29°41' W 093°20'611.5
2018-Jun-22 01:30N 29°47' W 093°21'510.3
2018-Jun-22 01:00N 29°52' W 093°21'5 9.5
2018-Jun-22 00:30N 29°57' W 093°20'4 8.0
2018-Jun-22 00:00N 30°01' W 093°20'3 6.0
2018-Jun-21 23:30N 30°04' W 093°20'4 7.2
2018-Jun-21 23:00N 30°07' W 093°20'2 5.0
2018-Jun-21 22:30N 30°10' W 093°19'1 2.9
2018-Jun-21 22:00N 30°11' W 093°19'2 3.5
2018-Jun-21 21:31N 30°09' W 093°20'0 0.5
2018-Jun-21 21:00N 30°09' W 093°20'0 0.0
2018-Jun-21 20:30N 30°09' W 093°20'0 0.0
2018-Jun-21 19:57N 30°09' W 093°20'0 0.0
2018-Jun-21 19:30N 30°09' W 093°20'0 0.0
2018-Jun-21 19:00N 30°09' W 093°20'0 0.0
2018-Jun-21 18:27N 30°09' W 093°20'0 0.0
2018-Jun-21 17:57N 30°09' W 093°20'0 0.0
2018-Jun-21 17:30N 30°09' W 093°20'0 0.0
2018-Jun-21 17:00N 30°09' W 093°20'0 0.0
2018-Jun-21 16:30N 30°09' W 093°20'0 0.0
2018-Jun-21 16:00N 30°09' W 093°20'0 0.0
2018-Jun-21 15:30N 30°09' W 093°20'0 0.0
2018-Jun-21 15:00N 30°09' W 093°20'0 0.0
2018-Jun-21 14:30N 30°09' W 093°20'0 0.0
2018-Jun-21 14:00N 30°09' W 093°20'0 0.0
2018-Jun-21 13:30N 30°09' W 093°20'0 0.0
2018-Jun-21 13:00N 30°09' W 093°20'0 0.0
2018-Jun-21 12:30N 30°09' W 093°20'0 0.0
2018-Jun-21 12:00N 30°09' W 093°20'0 0.0
2018-Jun-21 11:30N 30°09' W 093°20'0 0.0
2018-Jun-21 11:00N 30°09' W 093°20'0 0.0
2018-Jun-21 10:30N 30°09' W 093°20'0 0.0
2018-Jun-21 10:00N 30°09' W 093°20'0 0.0
2018-Jun-21 09:30N 30°09' W 093°20'0 0.0
2018-Jun-21 09:00N 30°09' W 093°20'0 0.0
2018-Jun-21 08:30N 30°09' W 093°20'0 0.0
2018-Jun-21 08:00N 30°09' W 093°20'0 0.0
2018-Jun-21 07:30N 30°09' W 093°20'0 0.0
2018-Jun-21 07:00N 30°09' W 093°20'0 0.0
2018-Jun-21 06:30N 30°09' W 093°20'0 0.0
2018-Jun-21 06:00N 30°09' W 093°20'0 0.0
2018-Jun-21 05:30N 30°09' W 093°20'0 0.0
2018-Jun-21 04:57N 30°09' W 093°20'0 0.0
2018-Jun-21 04:30N 30°09' W 093°20'0 0.0
2018-Jun-21 04:00N 30°09' W 093°20'0 0.0
2018-Jun-21 03:30N 30°09' W 093°20'0 0.0
2018-Jun-21 03:00N 30°09' W 093°20'0 0.0
2018-Jun-21 02:30N 30°09' W 093°20'0 0.0
2018-Jun-21 02:00N 30°09' W 093°20'0 0.0
2018-Jun-21 01:30N 30°09' W 093°20'0 0.0
2018-Jun-21 01:00N 30°09' W 093°20'0 0.0
2018-Jun-21 00:30N 30°09' W 093°20'0 0.0
2018-Jun-21 00:00N 30°09' W 093°20'0 0.0
2018-Jun-20 23:30N 30°09' W 093°20'0 0.0
2018-Jun-20 23:00N 30°09' W 093°20'0 0.0
2018-Jun-20 22:30N 30°09' W 093°20'0 0.0
2018-Jun-20 22:01N 30°09' W 093°20'1 1.2
2018-Jun-20 21:31N 30°09' W 093°20'3 5.4
2018-Jun-20 21:00N 30°06' W 093°20'3 6.4
2018-Jun-20 20:30N 30°03' W 093°20'3 6.0
2018-Jun-20 20:00N 29°60' W 093°20'4 7.0
2018-Jun-20 19:30N 29°56' W 093°20'4 7.6
2018-Jun-20 19:01N 29°53' W 093°21'4 8.6
2018-Jun-20 18:30N 29°48' W 093°21'4 8.6
2018-Jun-20 18:00N 29°44' W 093°20'4 8.8
2018-Jun-20 17:30N 29°40' W 093°20'611.4
2018-Jun-20 16:59N 29°34' W 093°16'  
Track history (hours):
 
Tides and Currents Weather Stations Pressure Air Temp Water Temp Dewpoint Dewpoint Depression Visibility Wind Speed Wind Dir Waves Ship Positions

Maran Sagitta

Last reported at 2018-Jun-22 05:57 UTC. Time now 2018-Jun-22 23:01 UTC.
Position N 28°53' W 093°13'.

Length 244 m; draft 9 m.

Type: Tanker. MMSI: 240892000.

Date/timePositionNaut miles runAvg speedWind from/ knotsBaromVisibWave heightAir tempDewpointWater temp
2018-Jun-22 05:57N 28°53' W 093°13'4212.2
2018-Jun-22 02:30N 29°35' W 093°17'612.4
2018-Jun-22 02:00N 29°41' W 093°20'611.5
2018-Jun-22 01:30N 29°47' W 093°21'510.3
2018-Jun-22 01:00N 29°52' W 093°21'5 9.5
2018-Jun-22 00:30N 29°57' W 093°20'4 8.0
2018-Jun-22 00:00N 30°01' W 093°20'3 6.0
2018-Jun-21 23:30N 30°04' W 093°20'4 7.2
2018-Jun-21 23:00N 30°07' W 093°20'2 5.0
2018-Jun-21 22:30N 30°10' W 093°19'1 2.9
2018-Jun-21 22:00N 30°11' W 093°19'2 3.5
2018-Jun-21 21:31N 30°09' W 093°20'0 0.5
2018-Jun-21 21:00N 30°09' W 093°20'0 0.0
2018-Jun-21 20:30N 30°09' W 093°20'0 0.0
2018-Jun-21 19:57N 30°09' W 093°20'0 0.0
2018-Jun-21 19:30N 30°09' W 093°20'0 0.0
2018-Jun-21 19:00N 30°09' W 093°20'0 0.0
2018-Jun-21 18:27N 30°09' W 093°20'0 0.0
2018-Jun-21 17:57N 30°09' W 093°20'0 0.0
2018-Jun-21 17:30N 30°09' W 093°20'0 0.0
2018-Jun-21 17:00N 30°09' W 093°20'0 0.0
2018-Jun-21 16:30N 30°09' W 093°20'0 0.0
2018-Jun-21 16:00N 30°09' W 093°20'0 0.0
2018-Jun-21 15:30N 30°09' W 093°20'0 0.0
2018-Jun-21 15:00N 30°09' W 093°20'0 0.0
2018-Jun-21 14:30N 30°09' W 093°20'0 0.0
2018-Jun-21 14:00N 30°09' W 093°20'0 0.0
2018-Jun-21 13:30N 30°09' W 093°20'0 0.0
2018-Jun-21 13:00N 30°09' W 093°20'0 0.0
2018-Jun-21 12:30N 30°09' W 093°20'0 0.0
2018-Jun-21 12:00N 30°09' W 093°20'0 0.0
2018-Jun-21 11:30N 30°09' W 093°20'0 0.0
2018-Jun-21 11:00N 30°09' W 093°20'0 0.0
2018-Jun-21 10:30N 30°09' W 093°20'0 0.0
2018-Jun-21 10:00N 30°09' W 093°20'0 0.0
2018-Jun-21 09:30N 30°09' W 093°20'0 0.0
2018-Jun-21 09:00N 30°09' W 093°20'0 0.0
2018-Jun-21 08:30N 30°09' W 093°20'0 0.0
2018-Jun-21 08:00N 30°09' W 093°20'0 0.0
2018-Jun-21 07:30N 30°09' W 093°20'0 0.0
2018-Jun-21 07:00N 30°09' W 093°20'0 0.0
2018-Jun-21 06:30N 30°09' W 093°20'0 0.0
2018-Jun-21 06:00N 30°09' W 093°20'0 0.0
2018-Jun-21 05:30N 30°09' W 093°20'0 0.0
2018-Jun-21 04:57N 30°09' W 093°20'0 0.0
2018-Jun-21 04:30N 30°09' W 093°20'0 0.0
2018-Jun-21 04:00N 30°09' W 093°20'0 0.0
2018-Jun-21 03:30N 30°09' W 093°20'0 0.0
2018-Jun-21 03:00N 30°09' W 093°20'0 0.0
2018-Jun-21 02:30N 30°09' W 093°20'0 0.0
2018-Jun-21 02:00N 30°09' W 093°20'0 0.0
2018-Jun-21 01:30N 30°09' W 093°20'0 0.0
2018-Jun-21 01:00N 30°09' W 093°20'0 0.0
2018-Jun-21 00:30N 30°09' W 093°20'0 0.0
2018-Jun-21 00:00N 30°09' W 093°20'0 0.0
2018-Jun-20 23:30N 30°09' W 093°20'0 0.0
2018-Jun-20 23:00N 30°09' W 093°20'0 0.0
2018-Jun-20 22:30N 30°09' W 093°20'0 0.0
2018-Jun-20 22:01N 30°09' W 093°20'1 1.2
2018-Jun-20 21:31N 30°09' W 093°20'3 5.4
2018-Jun-20 21:00N 30°06' W 093°20'3 6.4
2018-Jun-20 20:30N 30°03' W 093°20'3 6.0
2018-Jun-20 20:00N 29°60' W 093°20'4 7.0
2018-Jun-20 19:30N 29°56' W 093°20'4 7.6
2018-Jun-20 19:01N 29°53' W 093°21'4 8.6
2018-Jun-20 18:30N 29°48' W 093°21'4 8.6
2018-Jun-20 18:00N 29°44' W 093°20'4 8.8
2018-Jun-20 17:30N 29°40' W 093°20'611.4
2018-Jun-20 16:59N 29°34' W 093°16'  

Dump ship's entire track history